Lake Elsinore, CA (92530)

11:13 PM PST on February 06, 2016 (GMT -0800)
The Grove | | Change Station
CLOSE
Current Station
Personal Weather Station
Location: Lake Elsinore, CA
Elevation: 1358 ft
Nearby Weather Stations
Active Advisory: High Wind Watch

Elev 1358 ft 33.70 °N, 117.34 °W | Updated 8 minutes ago

Clear
Clear
51.6 °F
Feels Like 51.6 °F
N
0.0
Wind Variable Wind from ESE

Today
High -- | Low -- °F
--% Chance of Precip.
Yesterday
High -- | Low -- °F
Precip. -- in
Pressure 30.21 in
Visibility 10.0 miles
Clouds Clear
Dew Point 17 °F
Humidity 25%
Rainfall 0.00 in
Snow Depth Not available.
6:42 AM 5:24 PM
Waning Crescent, 2% visible
METAR KF70 070655Z AUTO 02004KT 10SM CLR 10/M04 A3021 RMK AO1
Pressure 30.21 in
Visibility 10.0 miles
Clouds Clear
Dew Point 17 °F
Humidity 25%
Rainfall 0.00 in
Snow Depth Not available.
6:42 AM 5:24 PM
Waning Crescent, 2% visible
METAR KF70 070655Z AUTO 02004KT 10SM CLR 10/M04 A3021 RMK AO1

10-Day Weather Forecast

Almanac

Astronomy

Feb. 06, 2016 Rise Set
Actual Time
Civil Twilight
Nautical Twilight
Astronomical Twilight
Moon
Length of Visible Light
Length of Day
Tomorrow will be .
, % of the Moon is Illuminated

Today's Extremes

State Highs State Lows

Community

WunderPhotos

Upload Photos

1,891,174 photos uploaded!

WunderBlog® & News

Nearby

Air Quality

  Air Quality AQ Index Pollutant
Not available.

Snow Depth

Station Depth Elevation

Earthquake Activity

City Distance Mag. Time & Date
Minimum magnitude displayed is 2.5.

Coastal Water Temperatures

Place Temperature

Stations

Nearby Weather Stations

Station Location Temp. Windchill Dew Point Humidity Wind Precip. Elev Updated Type
                   

Watches & Warnings

High Wind Watch
Issued: 8:50 PM PST Feb. 6, 2016 – National Weather Service

... High wind watch remains in effect from Sunday afternoon
through Monday afternoon...

* winds... east to northeast 30 to 40 mph with gusts 50 to 65 mph.

* Timing... winds increasing through the day on Sunday... peaking
Sunday night into Monday morning... then weakening into
Tuesday.

* Location... along the coastal mountain slopes and foothills and
below favored passes and canyons

* visibility... locally reduced in blowing dust

* impacts... strong cross winds will be a potential hazard for
high profile vehicles. Broken tree limbs and debris on
roadways .

* Outlook... winds of advisory strength may develop earlier on
Sunday in some wind-prone areas and continue into Tuesday
morning.

Precautionary/preparedness actions...

A high wind watch means there is the potential for a hazardous
high wind event. Sustained winds of at least 40 mph... or gusts of
58 mph or stronger may occur. Continue to monitor the latest
forecasts.



Maxwell